Latest Coastal Weather Observations for Mackay

IDQ60701

Issued at 9:42 pm EST Tuesday 4 August 2015 (issued every 10 minutes, with the page automatically refreshed every 10 minutes)

About coastal observations | Map of coastal stations | Coastal observations for QLD | Marine services | Other Formats
Station Details ID: 033119 Name: MACKAY M.O Lat: -21.12 Lon: 149.22 Height: 30.26 m
Data from the previous 72 hours. | See also: Recent months at Mackay
Date/Time
EST
Temp

°C
Wind Pressure Rain
since 9am
mm
Weather Cloud Vis
km
Sea
Height
m
Swell
Dir
 
Speed
knots
Gust
knots
hPa Trend Height
m
Period
s
Dir
04/09:30pm 17.4 SSW 5 6 1016.9 - 0.0 - - - - - - -
04/09:00pm 17.7 SSE 3 4 1016.7 F 0.0 - - - - - - -
04/08:30pm 18.0 SSE 4 5 1016.6 - 0.0 - - - - - - -
04/08:00pm 18.9 ESE 4 5 1016.5 - 0.0 - - - - - - -
04/07:30pm 19.3 E 4 5 1016.3 - 0.0 - - - - - - -
04/07:00pm 19.3 E 4 6 1015.8 - 0.0 - - - - - - -
04/06:30pm 19.1 SE 5 7 1015.6 - 0.0 - Partly cloudy - - - - -
04/06:00pm 19.2 SE 6 10 1015.4 F 0.0 - - - - - - -
04/05:30pm 19.6 SE 8 12 1015.4 - 0.0 - - - - - - -
04/05:00pm 20.0 ESE 8 11 1015.2 - 0.0 - Mostly clear 10 - - - -
04/04:30pm 20.3 ESE 7 11 1014.8 - 0.0 - Mostly clear 10 - - - -
04/04:00pm 20.3 ESE 6 9 1014.7 - 0.0 - Mostly clear 10 - - - -
04/03:30pm 20.4 ESE 7 11 1014.9 - 0.0 - Mostly clear 10 - - - -
04/03:00pm 21.3 E 7 10 1015.0 F 0.0 Fine Mostly clear 25 - - - -
04/02:30pm 20.6 E 8 11 1015.2 - 0.0 - Mostly clear 10 - - - -
04/02:00pm 20.3 E 8 12 1015.8 - 0.0 - Mostly clear 10 - - - -
04/01:30pm 20.8 ESE 8 14 1016.1 - 0.0 - Mostly clear 10 - - - -
04/01:00pm 21.1 ESE 8 13 1016.5 - 0.0 - Mostly clear 10 - - - -
04/12:30pm 21.0 SE 8 13 1017.1 - 0.0 - Mostly clear 10 - - - -
04/12:00pm 21.5 ESE 6 11 1017.6 F 0.0 Fine Mostly clear 25 - - - -
04/11:30am 21.1 SE 8 12 1018.0 - 0.0 - Mostly clear 10 - - - -
04/11:00am 21.1 SE 8 14 1018.5 - 0.0 - Mostly clear 10 - - - -
04/10:30am 20.8 SE 7 12 1018.7 - 0.0 - Mostly clear 10 - - - -
04/10:00am 20.9 SE 6 8 1018.8 - 0.0 - Mostly clear 10 - - - -
04/09:30am 20.3 S 7 9 1018.8 - 0.0 - Mostly clear 10 - - - -
04/09:00am 19.1 S 5 7 1018.8 R 0.2 Fine Partly cloudy 12 - - - -
04/08:30am 17.9 SSW 7 8 1018.5 - 0.0 - Mostly clear 8 - - - -
04/08:00am 17.1 SSW 5 8 1018.2 - 0.0 - Mostly cloudy 0.9 - - - -
04/07:30am 16.6 S 6 8 1018.0 - 0.0 Fog Mostly cloudy 0.5 - - - -
04/07:00am 16.5 SSW 6 8 1017.5 - 0.0 - Mostly cloudy 0.5 - - - -
04/06:30am 16.4 SW 7 10 1017.3 - 0.0 Fog Cloudy 0.2 - - - -
04/06:00am 16.5 SSW 7 9 1016.9 R 0.0 Fog Cloudy 0.4 - - - -
04/05:44am 16.2 SW 5 6 1016.6 - 0.0 - Cloudy - - - - -
04/05:30am 16.3 SW 5 6 1016.4 - 0.0 - Cloudy - - - - -
04/05:12am 16.3 SW 5 7 1016.1 - 0.0 - Cloudy - - - - -
04/05:00am 16.3 SW 5 7 1016.1 - 0.0 - Cloudy - - - - -
04/04:41am 16.2 SW 5 7 1015.9 - 0.0 - Cloudy - - - - -
04/04:30am 16.2 SW 5 6 1015.9 - 0.0 - Cloudy - - - - -
04/04:10am 16.1 SW 5 6 1015.8 - 0.0 - Partly cloudy - - - - -
04/04:00am 16.1 SW 5 6 1015.8 - 0.0 - Partly cloudy - - - - -
04/03:30am 16.2 SW 4 5 1016.1 - 0.0 - Partly cloudy - - - - -
04/03:00am 15.9 WSW 4 6 1016.1 - 0.0 - Mostly cloudy - - - - -
04/02:30am 16.3 WSW 5 6 1016.1 - 0.0 - Partly cloudy - - - - -
04/02:00am 16.3 SW 5 6 1016.4 - 0.0 - Cloudy - - - - -
04/01:30am 16.2 SW 5 7 1016.7 - 0.0 - Cloudy - - - - -
04/01:00am 16.4 SW 5 7 1017.1 - 0.0 - Partly cloudy - - - - -
04/12:49am 16.4 SSW 5 7 1017.2 - 0.0 - Partly cloudy - - - - -
04/12:30am 16.7 SSW 5 6 1017.2 - 0.0 - - - - - - -
04/12:00am 17.0 SW 5 6 1017.3 - 0.0 - - - - - - -
 
Date/Time
EST
Temp

°C
Wind Pressure Rain
since 9am
mm
Weather Cloud Vis
km
Sea
Height
m
Swell
Dir
 
Speed
knots
Gust
knots
hPa Trend Height
m
Period
s
Dir
03/11:30pm 17.5 SW 4 4 1017.5 - 0.0 - - - - - - -
03/11:00pm 17.6 SW 4 4 1017.6 - 0.0 - Partly cloudy - - - - -
03/10:55pm 17.7 SW 3 4 1017.7 - 0.0 - Partly cloudy - - - - -
03/10:30pm 17.9 SSW 4 5 1017.8 - 0.0 - Partly cloudy - - - - -
03/10:23pm 17.8 SW 4 5 1017.9 - 0.0 - Partly cloudy - - - - -
03/10:00pm 17.9 WSW 5 5 1017.9 - 0.0 - - - - - - -
03/09:48pm 17.8 WSW 5 6 1017.9 - 0.0 - Partly cloudy - - - - -
03/09:30pm 18.1 WSW 4 6 1017.9 - 0.0 - Partly cloudy - - - - -
03/09:00pm 19.0 SW 4 4 1018.0 F 0.0 - Mostly cloudy - - - - -
03/08:30pm 18.9 WSW 4 5 1018.0 - 0.0 - Partly cloudy - - - - -
03/08:05pm 19.0 CALM 0 0 1017.8 - 0.0 - Partly cloudy - - - - -
03/08:00pm 19.0 CALM 0 0 1017.7 - 0.0 - Partly cloudy - - - - -
03/07:30pm 19.5 ENE 2 4 1017.5 - 0.0 - - - - - - -
03/07:00pm 19.4 ENE 3 4 1017.3 - 0.0 - - - - - - -
03/06:30pm 19.7 E 3 5 1017.2 - 0.0 - - - - - - -
03/06:00pm 19.8 ENE 4 6 1016.8 F 0.0 - - - - - - -
03/05:30pm 20.4 NE 6 9 1016.5 - 0.0 - - - - - - -
03/05:00pm 21.4 NNE 5 9 1016.7 - 0.0 - - - - - - -
03/04:30pm 22.1 NNE 6 9 1016.6 - 0.0 - - - - - - -
03/04:00pm 22.8 NE 5 10 1016.6 - 0.0 - Mostly clear 10 - - - -
03/03:30pm 23.0 NE 6 11 1016.6 - 0.0 - Mostly clear 10 - - - -
03/03:00pm 23.2 NE 6 9 1016.8 R 0.0 Haze Mostly clear 20 - - - -
03/02:30pm 23.2 NE 6 9 1016.9 - 0.0 - Mostly clear 10 - - - -
03/02:00pm 22.7 ENE 6 11 1017.0 - 0.0 - Mostly clear 10 - - - -
03/01:30pm 22.6 ENE 7 9 1017.6 - 0.0 - - - - - - -
03/01:00pm 21.3 ENE 7 10 1018.0 - 0.0 - Mostly clear 10 - - - -
03/12:30pm 21.4 E 7 8 1018.5 - 0.0 - Mostly clear 10 - - - -
03/12:00pm 20.9 E 7 9 1018.9 F 0.0 Haze Mostly clear 20 - - - -
03/11:30am 21.8 ESE 5 8 1019.2 - 0.0 - Mostly clear 10 - - - -
03/11:00am 21.7 ESE 5 8 1019.6 - 0.0 - Mostly clear 10 - - - -
03/10:30am 21.9 ESE 5 8 1020.0 - 0.0 - Mostly clear 10 - - - -
03/10:00am 22.0 ESE 4 7 1020.3 - 0.0 - Mostly clear 10 - - - -
03/09:30am 21.0 SSW 5 8 1020.6 - 0.0 - Mostly clear 10 - - - -
03/09:00am 20.1 SW 6 9 1020.5 F 0.0 Haze Mostly clear 18 - - - -
03/08:30am 18.8 SW 7 10 1020.3 - 0.0 - Mostly clear 10 - - - -
03/08:00am 17.7 SW 6 7 1019.8 - 0.0 - Mostly clear 10 - - - -
03/07:30am 16.4 SW 6 7 1019.6 - 0.0 - Mostly clear 10 - - - -
03/07:00am 15.8 WSW 6 7 1019.4 - 0.0 - Mostly clear 10 - - - -
03/06:30am 15.7 SW 6 7 1019.2 - 0.0 - Mostly clear 10 - - - -
03/06:01am 16.1 SW 5 7 1019.2 - 0.0 - Partly cloudy - - - - -
03/06:00am 16.1 SW 5 7 1019.3 F 0.0 Shallow fog Partly cloudy 10 - - - -
03/05:30am 16.5 WSW 6 7 1019.1 - 0.0 - Cloudy - - - - -
03/05:00am 16.7 WSW 5 8 1019.0 - 0.0 - Cloudy - - - - -
03/04:30am 16.8 WSW 6 8 1018.8 - 0.0 - Cloudy - - - - -
03/04:00am 16.8 SW 6 7 1018.7 - 0.0 - Cloudy - - - - -
03/03:30am 16.6 SW 5 6 1018.6 - 0.0 - Cloudy - - - - -
03/03:00am 16.5 SW 6 8 1018.9 - 0.0 - Cloudy - - - - -
03/02:30am 16.2 SW 6 8 1019.1 - 0.0 - Partly cloudy - - - - -
03/02:22am 16.2 SW 6 8 1019.1 - 0.0 - Partly cloudy - - - - -
03/02:00am 16.0 SW 7 8 1019.3 - 0.0 - Partly cloudy - - - - -
03/01:30am 16.1 SW 6 8 1019.5 - 0.0 - - - - - - -
03/01:00am 16.3 SW 6 7 1019.7 - 0.0 - - - - - - -
03/12:30am 16.2 SW 6 7 1020.0 - 0.0 - - - - - - -
03/12:00am 16.2 SW 6 7 1020.2 - 0.0 - Mostly clear - - - - -
 
Date/Time
EST
Temp

°C
Wind Pressure Rain
since 9am
mm
Weather Cloud Vis
km
Sea
Height
m
Swell
Dir
 
Speed
knots
Gust
knots
hPa Trend Height
m
Period
s
Dir
02/11:30pm 16.8 WSW 5 6 1020.4 - 0.0 - Cloudy - - - - -
02/11:02pm 16.6 SW 4 5 1020.5 - 0.0 - Partly cloudy - - - - -
02/11:00pm 16.5 SW 4 6 1020.5 - 0.0 - Partly cloudy - - - - -
02/10:30pm 16.5 SW 5 6 1020.7 - 0.0 - - - - - - -
02/10:00pm 17.1 SSW 5 6 1020.7 - 0.0 - - - - - - -
02/09:30pm 17.7 S 5 6 1020.6 - 0.0 - - - - - - -
02/09:00pm 18.0 SSE 4 5 1020.6 F 0.0 - - - - - - -
02/08:30pm 18.6 SE 5 7 1020.3 - 0.0 - - - - - - -
02/08:00pm 18.5 SSE 5 7 1020.3 - 0.0 - - - - - - -
02/07:30pm 18.9 SSE 5 7 1020.1 - 0.0 - - - - - - -
02/07:00pm 19.1 SE 4 6 1020.0 - 0.0 - - - - - - -
02/06:30pm 19.4 ESE 5 8 1019.8 - 0.0 - - - - - - -
02/06:00pm 19.6 ESE 5 8 1019.6 F 0.0 - - - - - - -
02/05:30pm 19.9 ESE 5 8 1019.6 - 0.0 - - - - - - -
02/05:00pm 20.5 ESE 5 9 1019.5 - 0.0 - Mostly clear 10 - - - -
02/04:30pm 20.7 ESE 6 10 1019.4 - 0.0 - Mostly clear 10 - - - -
02/04:00pm 21.8 ESE 6 10 1019.5 - 0.0 - Mostly clear 10 - - - -
02/03:30pm 21.8 SE 6 11 1019.5 - 0.0 - Mostly clear 10 - - - -
02/03:00pm 21.9 SE 7 11 1019.6 R 0.0 Haze Mostly cloudy 20 - - - -
02/02:30pm 22.2 SE 7 13 1019.8 - 0.0 - Mostly clear 10 - - - -
02/02:00pm 22.2 SE 9 12 1020.0 - 0.0 - Mostly clear 10 - - - -
02/01:30pm 22.5 SSE 7 11 1020.4 - 0.0 - Partly cloudy - - - - -
02/01:00pm 22.6 SE 6 10 1021.0 - 0.0 - Mostly clear 10 - - - -
02/12:30pm 22.7 SSE 8 11 1021.3 - 0.0 - - - - - - -
02/12:00pm 22.3 SSE 9 14 1021.6 S 0.0 Haze Mostly clear 25 - - - -
02/11:30am 22.1 SSE 9 14 1021.8 - 0.0 - Mostly clear 10 - - - -
02/11:00am 21.8 SSE 7 13 1022.3 - 0.0 - Mostly clear 10 - - - -
02/10:30am 21.4 SSE 7 10 1022.5 - 0.0 - Mostly clear 10 - - - -
02/10:00am 21.5 SSE 8 13 1022.6 - 0.0 - Mostly clear 10 - - - -
02/09:30am 20.7 S 6 10 1022.8 - 0.0 - Mostly clear 10 - - - -
02/09:00am 19.7 S 6 9 1022.5 F 0.0 Haze Mostly clear 20 - - - -
02/08:30am 18.2 SSW 6 8 1022.3 - 0.0 - Partly cloudy - - - - -
02/08:00am 16.2 SSW 6 9 1021.9 - 0.0 - Partly cloudy 10 - - - -
02/07:30am 14.9 SW 7 9 1021.8 - 0.0 - Partly cloudy 10 - - - -
02/07:00am 14.2 SW 7 9 1021.5 - 0.0 - Partly cloudy 10 - - - -
02/06:30am 13.9 SW 7 9 1021.2 - 0.0 - Partly cloudy 10 - - - -
02/06:00am 14.0 SW 6 8 1021.0 F 0.0 Haze Partly cloudy 20 - - - -
02/05:30am 14.2 SW 6 8 1020.6 - 0.0 - Partly cloudy - - - - -
02/05:00am 14.5 SW 7 9 1020.6 - 0.0 - Partly cloudy - - - - -
02/04:30am 14.6 SW 7 8 1020.5 - 0.0 - - - - - - -
02/04:00am 14.6 SW 6 8 1020.6 - 0.0 - - - - - - -
02/03:30am 15.0 SW 6 8 1020.7 - 0.0 - Partly cloudy - - - - -
02/03:00am 15.0 SW 6 7 1020.9 - 0.0 - Partly cloudy - - - - -
02/02:30am 15.1 SW 6 8 1020.8 - 0.0 - Partly cloudy - - - - -
02/02:00am 15.4 SW 3 7 1020.9 - 0.0 - - - - - - -
02/01:30am 15.5 SSW 5 7 1021.0 - 0.0 - - - - - - -
02/01:00am 16.1 SSW 6 9 1021.2 - 0.0 - - - - - - -
02/12:30am 16.7 SW 7 10 1021.3 - 0.0 - Partly cloudy - - - - -
02/12:00am 16.5 SW 7 8 1021.6 - 0.0 - Partly cloudy - - - - -
 
Date/Time
EST
Temp

°C
Wind Pressure Rain
since 9am
mm
Weather Cloud Vis
km
Sea
Height
m
Swell
Dir
 
Speed
knots
Gust
knots
hPa Trend Height
m
Period
s
Dir
01/11:30pm 16.7 SW 6 8 1021.8 - 0.0 - Cloudy - - - - -
01/11:00pm 16.6 SW 5 8 1021.9 - 0.0 - Partly cloudy - - - - -
01/10:30pm 17.0 SW 5 6 1021.7 - 0.0 - - - - - - -
01/10:00pm 18.8 SSE 6 7 1021.6 - 0.0 - - - - - - -

Other Formats:

Comma delimited format used in spreadsheet applications
http://www.bom.gov.au/fwo/IDQ60701/IDQ60701.94367.axf

JavaScript Object Notation format (JSON) in row-major order
http://www.bom.gov.au/fwo/IDQ60701/IDQ60701.94367.json